Time;durP1;ratioP1;P1;durP2;ratioP2;P2;SDS_P1;SDS_P2;PMS_P1;PMS_P2;Temp;Humidity;BMP_temperature;BMP_pressure;BME280_temperature;BME280_humidity;BME280_pressure;Samples;Min_cycle;Max_cycle;Signal;HPM_P1;HPM_P2
2022/05/26 00:02:22;;;;;;;3.15;2.30;;;;;;;13.84;88.31;101702.19;5099878;28;20035;-73
2022/05/26 00:04:47;;;;;;;4.22;2.90;;;;;;;13.75;88.39;101696.25;5091813;28;20464;-73
2022/05/26 00:07:12;;;;;;;5.45;2.63;;;;;;;13.71;88.24;101699.84;5091093;28;20028;-73
2022/05/26 00:09:38;;;;;;;4.15;2.40;;;;;;;13.71;88.11;101704.22;5106492;28;20027;-73
2022/05/26 00:12:04;;;;;;;3.50;2.72;;;;;;;13.70;88.76;101702.47;5112145;28;20019;-73
2022/05/26 00:14:30;;;;;;;5.00;2.60;;;;;;;13.69;89.22;101698.16;5111473;28;20024;-73
2022/05/26 00:16:56;;;;;;;4.22;2.70;;;;;;;13.68;88.80;101702.53;5112220;28;20032;-73
2022/05/26 00:19:21;;;;;;;5.85;3.13;;;;;;;13.66;89.32;101693.84;5110842;28;20092;-73
2022/05/26 00:21:49;;;;;;;9.18;2.78;;;;;;;13.69;89.67;101704.25;5110125;28;20079;-73
2022/05/26 00:24:16;;;;;;;5.15;3.03;;;;;;;13.65;89.83;101699.13;5111960;28;20425;-73
2022/05/26 00:26:41;;;;;;;5.75;3.10;;;;;;;13.63;89.93;101693.91;5110177;28;20387;-73
2022/05/26 00:29:07;;;;;;;6.32;2.90;;;;;;;13.67;90.09;101705.16;5111434;28;20482;-73
2022/05/26 00:31:32;;;;;;;7.72;3.03;;;;;;;13.68;90.45;101704.28;5109118;28;20023;-74
2022/05/26 00:33:57;;;;;;;4.97;2.97;;;;;;;13.70;89.45;101707.72;5098290;28;20467;-74
2022/05/26 00:36:44;;;;;;;7.72;3.40;;;;;;;13.73;89.69;101712.91;5112118;28;20032;-73
2022/05/26 00:39:10;;;;;;;7.90;3.53;;;;;;;13.76;90.35;101715.44;5102237;28;20036;-73
2022/05/26 00:41:42;;;;;;;5.43;3.00;;;;;;;13.77;90.01;101719.81;5104683;28;20141;-73
2022/05/26 00:44:08;;;;;;;7.37;3.90;;;;;;;13.77;89.26;101715.44;5112209;28;20020;-73
2022/05/26 00:46:43;;;;;;;8.15;3.33;;;;;;;13.79;89.54;101718.84;5111799;28;20111;-73
2022/05/26 00:49:16;;;;;;;8.63;3.40;;;;;;;13.80;89.37;101717.13;5110223;28;20050;-74
2022/05/26 00:51:42;;;;;;;;;;;;;;;13.84;87.80;101713.53;5111664;28;20039;-73
2022/05/26 00:54:13;;;;;;;6.22;3.10;;;;;;;13.80;89.11;101710.13;5109399;28;20358;-74
2022/05/26 00:56:52;;;;;;;8.75;3.30;;;;;;;13.82;89.85;101713.56;5110891;28;20034;-73
2022/05/26 00:59:21;;;;;;;7.93;3.30;;;;;;;13.79;90.35;101713.63;5111905;28;20024;-73
2022/05/26 01:01:47;;;;;;;9.65;3.40;;;;;;;13.80;88.94;101714.50;5109802;28;20024;-73
2022/05/26 01:04:17;;;;;;;9.02;4.10;;;;;;;13.80;89.74;101710.13;5107345;28;20467;-73
2022/05/26 01:06:59;;;;;;;7.65;3.33;;;;;;;13.82;89.65;101717.94;5108865;28;20059;-73
2022/05/26 01:09:24;;;;;;;6.72;3.25;;;;;;;13.82;90.96;101718.78;5109222;28;20103;-73
2022/05/26 01:11:49;;;;;;;6.22;3.13;;;;;;;13.82;90.69;101713.56;5111684;28;20512;-73
2022/05/26 01:14:38;;;;;;;9.07;4.10;;;;;;;13.85;90.18;101724.88;5110313;28;20027;-73
2022/05/26 01:17:40;;;;;;;9.07;3.95;;;;;;;13.86;89.31;101723.97;5090853;28;20028;-74
2022/05/26 01:20:31;;;;;;;10.80;3.67;;;;;;;13.84;90.16;101720.53;5091566;28;20034;-73
2022/05/26 01:23:28;;;;;;;9.10;3.97;;;;;;;13.87;89.79;101725.72;5110461;28;20102;-73
2022/05/26 01:26:42;;;;;;;10.50;4.03;;;;;;;13.86;89.76;101719.59;5113680;28;20344;-73
2022/05/26 01:29:38;;;;;;;11.00;3.88;;;;;;;13.87;88.99;101728.34;5094986;28;20036;-74
2022/05/26 01:32:23;;;;;;;7.38;3.95;;;;;;;13.86;89.98;101731.81;5095882;28;20050;-73
2022/05/26 01:34:55;;;;;;;10.95;4.60;;;;;;;13.85;90.97;101724.88;5112069;28;20024;-73
2022/05/26 01:37:39;;;;;;;10.27;4.32;;;;;;;13.85;90.95;101727.50;5113285;28;20030;-73
2022/05/26 01:40:17;;;;;;;8.15;4.40;;;;;;;13.86;90.17;101729.22;5114190;28;20031;-74
2022/05/26 01:43:01;;;;;;;8.27;4.20;;;;;;;13.84;90.96;101726.63;5115096;28;20047;-74
2022/05/26 01:45:35;;;;;;;;;;;;;;;13.87;89.35;101726.56;5113265;28;20020;-73
2022/05/26 01:48:07;;;;;;;11.23;4.28;;;;;;;13.82;90.55;101734.53;5115018;28;19964;-73
2022/05/26 01:51:03;;;;;;;14.07;5.63;;;;;;;13.85;90.41;101733.59;5114201;28;20079;-73
2022/05/26 01:53:47;;;;;;;12.98;4.57;;;;;;;13.86;90.55;101742.31;5114465;28;20040;-73
2022/05/26 01:56:21;;;;;;;11.65;5.20;;;;;;;13.85;90.20;101748.47;5112525;28;20429;-73
2022/05/26 01:58:53;;;;;;;10.75;4.75;;;;;;;13.85;91.49;101753.69;5113529;28;20042;-73
2022/05/26 02:01:22;;;;;;;12.68;5.30;;;;;;;13.82;91.57;101746.75;5114372;28;20023;-74
2022/05/26 02:03:49;;;;;;;13.57;6.80;;;;;;;13.82;91.18;101746.75;5113222;28;20034;-74
2022/05/26 02:06:31;;;;;;;13.32;7.00;;;;;;;13.81;91.46;101752.91;5112380;28;20106;-73
2022/05/26 02:09:05;;;;;;;13.85;6.72;;;;;;;13.79;91.10;101752.06;5114795;28;20028;-74
2022/05/26 02:11:33;;;;;;;13.32;6.50;;;;;;;13.80;91.15;101754.69;5113939;28;20016;-73
2022/05/26 02:14:07;;;;;;;12.98;6.90;;;;;;;13.80;91.79;101752.06;5113907;28;20027;-73
2022/05/26 02:16:42;;;;;;;;;;;;;;;13.84;90.18;101762.47;5112427;28;20035;-74
2022/05/26 02:19:23;;;;;;;13.65;6.82;;;;;;;13.80;91.36;101756.44;5113100;28;19916;-74
2022/05/26 02:22:21;;;;;;;14.23;6.70;;;;;;;13.77;91.81;101773.09;5114051;28;20024;-74
2022/05/26 02:24:55;;;;;;;21.52;7.30;;;;;;;13.76;91.56;101771.34;5112805;28;20059;-73
2022/05/26 02:27:21;;;;;;;16.58;8.65;;;;;;;13.75;91.12;101774.00;5112332;28;20114;-74
2022/05/26 02:29:55;;;;;;;13.27;7.45;;;;;;;13.74;91.28;101761.81;5111862;28;20115;-73
2022/05/26 02:32:37;;;;;;;15.10;8.35;;;;;;;13.73;90.97;101773.16;5112536;28;20023;-74
2022/05/26 02:35:07;;;;;;;18.55;8.07;;;;;;;13.73;91.65;101781.03;5094596;28;20013;-74
2022/05/26 02:37:35;;;;;;;15.43;8.18;;;;;;;13.69;91.48;101774.13;5113259;27;20869;-73
2022/05/26 02:40:00;;;;;;;14.57;7.20;;;;;;;13.66;92.25;101767.19;5113269;28;20110;-74
2022/05/26 02:42:27;;;;;;;13.18;7.72;;;;;;;13.67;92.05;101782.06;5112916;27;20110;-74
2022/05/26 02:44:53;;;;;;;15.18;7.28;;;;;;;13.65;92.40;101775.97;5112235;27;20032;-73
2022/05/26 02:47:30;;;;;;;14.60;8.15;;;;;;;13.66;92.19;101785.53;5113429;28;20031;-73
2022/05/26 02:50:34;;;;;;;17.33;8.48;;;;;;;13.68;91.70;101780.28;5113794;28;20043;-73
2022/05/26 02:53:18;;;;;;;15.93;7.50;;;;;;;13.66;92.20;101782.91;5093019;28;20081;-73
2022/05/26 02:55:51;;;;;;;19.20;8.27;;;;;;;13.63;93.43;101796.09;5099672;28;20031;-74
2022/05/26 02:58:35;;;;;;;18.38;8.07;;;;;;;13.64;93.11;101783.88;5113533;28;20039;-73
2022/05/26 03:01:03;;;;;;;;;;;;;;;13.63;91.62;101785.59;5099590;28;20042;-73
2022/05/26 03:03:45;;;;;;;17.23;9.38;;;;;;;13.59;91.44;101781.34;5092035;28;19912;-73
2022/05/26 03:06:17;;;;;;;18.65;9.10;;;;;;;13.54;91.92;101791.06;5102321;28;20028;-73
2022/05/26 03:08:44;;;;;;;19.63;9.00;;;;;;;13.53;92.13;101786.69;5111792;28;20106;-73
2022/05/26 03:11:15;;;;;;;21.48;9.15;;;;;;;13.53;92.88;101778.84;5112036;28;20027;-73
2022/05/26 03:13:41;;;;;;;24.52;9.68;;;;;;;13.52;93.19;101792.84;5113130;28;20497;-73
2022/05/26 03:16:07;;;;;;;18.75;8.93;;;;;;;13.51;92.94;101797.22;5111253;28;20035;-73
2022/05/26 03:18:32;;;;;;;21.38;8.60;;;;;;;13.48;92.73;101783.31;5112461;28;20468;-73
2022/05/26 03:21:00;;;;;;;20.45;9.10;;;;;;;13.44;93.48;101789.50;5112325;28;20026;-73
2022/05/26 03:23:26;;;;;;;21.73;9.07;;;;;;;13.40;93.40;101793.09;5112144;28;20360;-73
2022/05/26 03:25:53;;;;;;;21.90;8.35;;;;;;;13.38;94.42;101806.22;5111716;28;20117;-73
2022/05/26 03:28:18;;;;;;;14.70;8.68;;;;;;;13.35;93.83;101798.41;5111836;28;20397;-73
2022/05/26 03:30:43;;;;;;;19.27;8.98;;;;;;;13.38;94.33;101805.38;5109598;28;20020;-73
2022/05/26 03:33:08;;;;;;;16.60;8.65;;;;;;;13.31;94.92;101792.38;5112491;28;20031;-73
2022/05/26 03:41:02;;;;;;;24.23;9.77;;;;;;;13.36;94.42;101815.84;5106645;28;20105;-73
2022/05/26 03:43:35;;;;;;;21.50;8.68;;;;;;;13.36;94.48;101818.47;5092064;28;20472;-73
2022/05/26 03:46:01;;;;;;;20.00;9.00;;;;;;;13.35;94.77;101819.38;5100065;28;20031;-73
2022/05/26 03:48:27;;;;;;;22.98;8.60;;;;;;;13.35;94.79;101822.00;5111587;28;20031;-73
2022/05/26 03:50:52;;;;;;;20.25;8.48;;;;;;;13.33;94.77;101818.53;5109586;28;20023;-73
2022/05/26 03:53:18;;;;;;;25.90;8.77;;;;;;;13.33;95.12;101818.53;5112120;28;20044;-74
2022/05/26 03:55:43;;;;;;;24.13;7.88;;;;;;;13.35;95.03;101827.22;5105604;28;20043;-73
2022/05/26 03:58:08;;;;;;;22.30;7.68;;;;;;;13.31;94.80;101836.91;5091566;28;20392;-74
2022/05/26 04:00:35;;;;;;;20.80;8.10;;;;;;;13.21;94.92;101824.84;5091661;28;20024;-73
2022/05/26 04:03:00;;;;;;;20.38;7.57;;;;;;;13.12;95.00;101827.63;5110675;28;20391;-73
2022/05/26 04:05:26;;;;;;;20.80;7.50;;;;;;;13.08;95.79;101836.44;5110334;28;20035;-73
2022/05/26 04:07:51;;;;;;;19.08;7.25;;;;;;;13.05;96.17;101839.13;5112302;28;20024;-73
2022/05/26 04:10:16;;;;;;;24.42;8.30;;;;;;;12.99;96.75;101840.06;5111962;28;20020;-73
2022/05/26 04:12:42;;;;;;;21.23;7.47;;;;;;;12.95;96.52;101834.91;5094725;28;20036;-74
2022/05/26 04:15:08;;;;;;;24.52;8.63;;;;;;;12.93;96.32;101839.31;5092219;28;20105;-73
2022/05/26 04:17:33;;;;;;;22.55;8.43;;;;;;;12.94;97.35;101838.41;5111209;28;20027;-74
2022/05/26 04:20:00;;;;;;;22.52;8.82;;;;;;;12.94;96.62;101841.03;5110646;28;20360;-74
2022/05/26 04:22:26;;;;;;;18.60;7.07;;;;;;;12.97;97.01;101846.22;5109664;28;20368;-74
2022/05/26 04:24:54;;;;;;;24.35;7.28;;;;;;;13.05;96.53;101849.59;5111893;28;20103;-74
2022/05/26 04:27:21;;;;;;;20.83;7.78;;;;;;;13.12;96.54;101852.06;5108734;28;20035;-73
2022/05/26 04:29:47;;;;;;;20.10;7.88;;;;;;;13.16;96.64;101850.25;5111881;28;20459;-74
2022/05/26 04:32:13;;;;;;;19.80;7.60;;;;;;;13.22;96.06;101858.00;5111850;28;20023;-73
2022/05/26 04:34:39;;;;;;;19.80;7.35;;;;;;;13.27;95.64;101852.69;5098477;28;20032;-73
2022/05/26 04:37:04;;;;;;;20.85;7.43;;;;;;;13.30;96.11;101857.88;5105132;28;20056;-74
2022/05/26 04:39:30;;;;;;;21.10;7.88;;;;;;;13.37;95.73;101859.47;5111778;28;20035;-74
2022/05/26 04:42:00;;;;;;;23.63;7.43;;;;;;;13.41;95.61;101857.69;5109465;28;20027;-74
2022/05/26 04:44:30;;;;;;;22.48;7.38;;;;;;;13.38;95.60;101857.75;5111155;28;20027;-74
2022/05/26 04:46:55;;;;;;;21.35;8.18;;;;;;;13.36;94.57;101860.38;5109544;28;20024;-73
2022/05/26 04:49:21;;;;;;;25.13;8.00;;;;;;;13.40;95.71;101869.03;5110670;28;20047;-73
2022/05/26 04:51:46;;;;;;;19.10;7.72;;;;;;;13.40;94.88;101869.03;5110184;28;20038;-73
2022/05/26 04:54:11;;;;;;;25.50;7.40;;;;;;;13.40;95.14;101874.28;5110757;28;20046;-73
2022/05/26 04:56:37;;;;;;;19.90;6.97;;;;;;;13.40;95.55;101874.28;5108679;28;20043;-73
2022/05/26 04:59:04;;;;;;;20.65;8.02;;;;;;;13.49;95.85;101884.59;5115557;28;20023;-73
2022/05/26 05:01:32;;;;;;;19.70;7.28;;;;;;;13.55;95.53;101885.34;5112975;28;20078;-73
2022/05/26 05:03:57;;;;;;;22.70;7.45;;;;;;;13.62;94.69;101886.06;5115968;28;20169;-74
2022/05/26 05:06:23;;;;;;;24.35;7.45;;;;;;;13.63;94.77;101887.78;5107083;28;20115;-73
2022/05/26 05:08:48;;;;;;;19.48;7.50;;;;;;;13.72;95.00;101898.09;5095028;28;20036;-74
2022/05/26 05:11:13;;;;;;;24.33;8.18;;;;;;;13.79;94.39;101897.06;5114266;28;20143;-73
2022/05/26 05:13:40;;;;;;;24.90;7.80;;;;;;;13.85;93.59;101900.47;5114707;28;20024;-73
2022/05/26 05:16:12;;;;;;;23.00;8.20;;;;;;;13.95;93.67;101904.63;5113676;28;20053;-74
2022/05/26 05:18:37;;;;;;;26.92;8.43;;;;;;;13.98;92.34;101897.56;5114767;28;20032;-74
2022/05/26 05:21:07;;;;;;;18.63;7.53;;;;;;;13.96;92.01;101914.22;5113382;28;20030;-74
2022/05/26 05:23:37;;;;;;;23.10;7.68;;;;;;;13.92;92.74;101902.06;5114327;28;20027;-74
2022/05/26 05:26:03;;;;;;;19.33;7.40;;;;;;;13.94;92.06;101908.16;5115737;28;20019;-74
2022/05/26 05:28:33;;;;;;;19.60;7.15;;;;;;;13.95;92.64;101909.88;5115265;28;20749;-73
2022/05/26 05:31:03;;;;;;;20.52;7.40;;;;;;;14.07;91.45;101916.66;5112487;28;20106;-73
2022/05/26 05:33:33;;;;;;;22.90;7.18;;;;;;;14.18;92.12;101926.00;5097840;28;20032;-74
2022/05/26 05:36:06;;;;;;;22.30;6.78;;;;;;;14.27;91.62;101917.94;5113859;28;20039;-74
2022/05/26 05:38:34;;;;;;;24.38;7.57;;;;;;;14.33;91.11;101924.81;5094079;28;20125;-73
2022/05/26 05:41:01;;;;;;;23.58;8.05;;;;;;;14.35;90.72;101927.38;5094824;28;20032;-73
2022/05/26 05:43:27;;;;;;;25.40;7.53;;;;;;;14.35;89.69;101922.16;5109228;28;20032;-74
2022/05/26 05:45:52;;;;;;;18.02;6.88;;;;;;;14.37;90.30;101926.47;5097904;28;20035;-74
2022/05/26 05:48:17;;;;;;;22.98;7.03;;;;;;;14.40;90.69;101922.91;5112627;28;20051;-73
2022/05/26 05:50:42;;;;;;;27.48;7.28;;;;;;;14.48;89.92;101934.09;5114163;28;20096;-74
2022/05/26 05:53:09;;;;;;;26.02;7.53;;;;;;;14.49;90.90;101934.06;5114939;28;20441;-74
2022/05/26 05:55:34;;;;;;;21.10;6.90;;;;;;;14.54;90.19;101934.00;5113416;28;20024;-73
2022/05/26 05:58:00;;;;;;;22.48;7.07;;;;;;;14.56;90.09;101937.47;5113200;28;20031;-74
2022/05/26 06:00:25;;;;;;;18.65;7.00;;;;;;;14.62;88.50;101944.34;5109443;28;20024;-73
2022/05/26 06:02:50;;;;;;;27.25;8.18;;;;;;;14.63;89.85;101944.28;5093975;28;20028;-74
2022/05/26 06:05:15;;;;;;;19.13;7.80;;;;;;;14.71;89.49;101959.84;5100322;28;20027;-73
2022/05/26 06:07:41;;;;;;;22.67;7.75;;;;;;;14.80;89.47;101951.75;5114523;28;20020;-74
2022/05/26 06:10:10;;;;;;;18.40;7.30;;;;;;;14.87;89.00;101955.97;5109586;28;20379;-73
2022/05/26 06:12:36;;;;;;;22.40;7.72;;;;;;;15.01;88.18;101955.66;5112063;28;20431;-74
2022/05/26 06:15:02;;;;;;;15.95;7.60;;;;;;;15.06;86.68;101956.41;5101611;28;20055;-73
2022/05/26 06:17:27;;;;;;;18.50;7.38;;;;;;;15.13;87.61;101960.59;5114067;28;20027;-73
2022/05/26 06:19:52;;;;;;;18.33;7.75;;;;;;;15.14;85.68;101967.59;5105065;28;19966;-73
2022/05/26 06:22:20;;;;;;;20.08;8.43;;;;;;;15.09;85.09;101960.72;5093888;28;20035;-74
2022/05/26 06:24:47;;;;;;;24.95;10.40;;;;;;;15.02;85.57;101972.28;5099577;28;20073;-73
2022/05/26 06:29:59;;;;;;;23.13;9.48;;;;;;;14.82;86.11;101970.13;5092477;28;20090;-73
2022/05/26 06:37:56;;;;;;;22.55;11.13;;;;;;;15.18;84.47;101979.75;5112574;28;20123;-73
2022/05/26 06:40:21;;;;;;;21.77;10.82;;;;;;;15.29;85.30;101976.84;5111576;28;20450;-72
2022/05/26 06:42:48;;;;;;;20.83;11.55;;;;;;;15.42;84.96;101988.75;5113657;28;20344;-73
2022/05/26 06:45:16;;;;;;;24.10;12.65;;;;;;;15.55;82.88;101988.47;5113698;28;20023;-73
2022/05/26 06:47:41;;;;;;;24.38;11.75;;;;;;;15.74;82.92;101989.72;5109198;28;20494;-73
2022/05/26 06:50:07;;;;;;;23.55;12.05;;;;;;;15.88;81.54;101989.34;5111833;28;20114;-73
2022/05/26 06:52:32;;;;;;;23.17;11.48;;;;;;;16.02;82.75;101981.97;5111071;28;20032;-73
2022/05/26 06:54:59;;;;;;;28.83;12.57;;;;;;;16.08;80.23;101994.06;5111812;28;20407;-72
2022/05/26 06:57:24;;;;;;;21.90;12.25;;;;;;;16.06;80.26;101999.38;5113514;28;20039;-72
2022/05/26 06:59:50;;;;;;;24.35;12.93;;;;;;;16.07;79.19;101994.97;5111428;28;20439;-73
2022/05/26 07:02:15;;;;;;;21.58;12.15;;;;;;;16.23;80.09;101992.78;5108032;28;20023;-72
2022/05/26 07:04:42;;;;;;;23.33;11.05;;;;;;;16.42;78.69;102001.88;5095159;28;20027;-73
2022/05/26 07:07:09;;;;;;;22.40;11.60;;;;;;;16.38;77.26;101997.56;5094745;28;20484;-73
2022/05/26 07:09:34;;;;;;;23.48;12.82;;;;;;;16.31;78.18;102007.41;5101674;27;20575;-72
2022/05/26 07:11:59;;;;;;;23.88;12.18;;;;;;;16.49;76.62;102013.94;5093205;28;20095;-73
2022/05/26 07:14:25;;;;;;;19.58;11.55;;;;;;;16.61;78.29;102007.41;5109525;28;20404;-73
2022/05/26 07:16:50;;;;;;;20.63;11.45;;;;;;;16.92;78.04;102011.78;5112278;28;20085;-72
2022/05/26 07:19:17;;;;;;;17.55;11.00;;;;;;;17.12;76.36;102009.38;5112711;27;20422;-73
2022/05/26 07:21:43;;;;;;;22.10;13.15;;;;;;;17.09;73.78;102010.34;5111258;27;20452;-73
2022/05/26 07:24:10;;;;;;;24.58;12.40;;;;;;;17.13;74.13;102015.50;5095953;28;20081;-73
2022/05/26 07:26:35;;;;;;;22.98;12.13;;;;;;;17.18;74.94;102018.88;5109138;28;20114;-73
2022/05/26 07:29:01;;;;;;;17.90;11.60;;;;;;;17.24;73.87;102022.16;5112497;27;20087;-72
2022/05/26 07:31:27;;;;;;;17.55;11.02;;;;;;;17.14;73.29;102022.53;5112682;28;20022;-73
2022/05/26 07:33:52;;;;;;;16.85;10.20;;;;;;;16.96;75.16;102018.69;5112782;28;20012;-73
2022/05/26 07:41:49;;;;;;;20.67;10.35;;;;;;;16.51;74.42;102038.44;5110906;28;20063;-73
2022/05/26 07:44:14;;;;;;;19.98;10.98;;;;;;;16.56;74.88;102036.53;5110975;28;20039;-73
2022/05/26 07:46:40;;;;;;;20.23;12.25;;;;;;;16.73;73.77;102045.69;5099035;28;20031;-73
2022/05/26 07:49:05;;;;;;;25.40;13.38;;;;;;;16.99;72.57;102034.41;5107711;28;20079;-73
2022/05/26 07:51:31;;;;;;;18.90;13.52;;;;;;;17.18;73.04;102040.81;5111535;28;20468;-72
2022/05/26 07:54:00;;;;;;;20.92;13.10;;;;;;;17.25;72.59;102042.31;5109587;28;20039;-72
2022/05/26 07:56:29;;;;;;;19.50;12.05;;;;;;;17.13;72.02;102034.81;5109738;28;20028;-73
2022/05/26 07:58:55;;;;;;;17.35;11.20;;;;;;;17.07;70.94;102048.19;5111594;28;20495;-73
2022/05/26 08:01:20;;;;;;;18.15;12.15;;;;;;;16.87;71.49;102043.53;5112271;28;20047;-73
2022/05/26 08:03:45;;;;;;;17.38;11.23;;;;;;;16.80;73.75;102052.53;5110139;28;20020;-73
2022/05/26 08:06:12;;;;;;;19.08;11.57;;;;;;;16.84;74.57;102046.28;5111450;28;20040;-73
2022/05/26 08:08:38;;;;;;;18.85;10.75;;;;;;;16.97;73.41;102037.09;5110777;28;20030;-73
2022/05/26 08:11:03;;;;;;;14.45;9.90;;;;;;;17.12;73.54;102038.38;5111823;28;20028;-72
2022/05/26 08:13:28;;;;;;;18.10;10.50;;;;;;;17.24;73.02;102047.66;5109392;28;20054;-73
2022/05/26 08:15:54;;;;;;;14.85;10.20;;;;;;;17.15;72.76;102059.34;5103631;28;20016;-73
2022/05/26 08:18:19;;;;;;;19.55;11.80;;;;;;;17.09;73.04;102060.38;5090753;28;20024;-73
2022/05/26 08:20:45;;;;;;;21.10;12.88;;;;;;;17.17;73.06;102056.69;5095886;28;20067;-73
2022/05/26 08:23:10;;;;;;;20.98;12.15;;;;;;;17.31;73.62;102046.53;5090603;28;20031;-73
2022/05/26 08:25:36;;;;;;;18.25;11.10;;;;;;;17.70;72.08;102051.41;5096225;28;20370;-73
2022/05/26 08:28:01;;;;;;;20.90;12.15;;;;;;;17.87;67.62;102058.78;5112223;28;20416;-73
2022/05/26 08:30:27;;;;;;;21.48;12.40;;;;;;;17.68;68.89;102053.22;5111897;28;20104;-74
2022/05/26 08:32:54;;;;;;;19.23;12.50;;;;;;;17.74;71.81;102053.03;5110723;28;20375;-74
2022/05/26 08:35:20;;;;;;;18.25;13.88;;;;;;;18.13;69.39;102053.44;5110917;28;20052;-74
2022/05/26 08:37:45;;;;;;;16.42;11.60;;;;;;;18.33;66.50;102059.78;5107141;28;20436;-73
2022/05/26 08:40:32;;;;;;;17.58;11.02;;;;;;;18.21;68.03;102061.06;5098877;28;20543;-74
2022/05/26 08:42:58;;;;;;;13.30;9.70;;;;;;;17.98;66.16;102059.25;5094553;28;20020;-73
2022/05/26 08:45:23;;;;;;;18.13;11.05;;;;;;;17.87;67.90;102062.25;5100119;28;20027;-73
2022/05/26 08:47:51;;;;;;;21.65;14.00;;;;;;;17.90;68.40;102070.06;5101457;28;20035;-73
2022/05/26 08:50:27;;;;;;;22.63;16.90;;;;;;;18.15;69.69;102069.22;5093852;28;20092;-73
2022/05/26 08:53:20;;;;;;;22.20;17.70;;;;;;;18.48;69.15;102078.56;5101623;28;20035;-73
2022/05/26 08:55:49;;;;;;;24.38;19.23;;;;;;;18.81;68.24;102069.47;5096748;28;20024;-73
2022/05/26 08:58:17;;;;;;;25.60;18.50;;;;;;;19.12;67.50;102064.66;5098070;28;20486;-73
2022/05/26 09:00:45;;;;;;;24.23;18.27;;;;;;;18.98;63.39;102079.38;5093107;28;20074;-73
2022/05/26 09:03:28;;;;;;;23.50;18.70;;;;;;;18.47;65.51;102087.41;5093888;28;20008;-73
2022/05/26 09:06:15;;;;;;;23.98;18.83;;;;;;;18.21;67.70;102083.06;5094510;28;20020;-73
2022/05/26 09:14:23;;;;;;;21.02;17.88;;;;;;;19.23;64.00;102082.78;5076186;28;20047;-74
2022/05/26 09:16:48;;;;;;;21.50;16.90;;;;;;;19.59;63.03;102076.91;5096334;28;20483;-74
2022/05/26 09:19:20;;;;;;;21.20;16.10;;;;;;;19.66;62.73;102086.34;5113125;28;20036;-73
2022/05/26 09:21:48;;;;;;;17.42;14.73;;;;;;;20.00;60.59;102085.75;5110981;28;20035;-73
2022/05/26 09:24:25;;;;;;;20.75;15.15;;;;;;;19.99;60.75;102084.03;5112721;28;20031;-72
2022/05/26 09:26:58;;;;;;;17.80;14.55;;;;;;;19.61;58.86;102091.75;5113221;28;20081;-73
2022/05/26 09:29:30;;;;;;;19.58;16.55;;;;;;;19.31;62.09;102083.31;5114549;28;20031;-73
2022/05/26 09:31:58;;;;;;;21.50;15.85;;;;;;;19.23;61.14;102088.06;5114360;28;20032;-72
2022/05/26 09:34:34;;;;;;;20.52;16.60;;;;;;;19.40;62.45;102106.75;5105890;28;20032;-73
2022/05/26 09:37:05;;;;;;;19.35;15.45;;;;;;;19.37;62.79;102104.22;5106096;28;20433;-73
2022/05/26 09:39:36;;;;;;;19.67;15.20;;;;;;;19.53;62.19;102107.09;5105747;28;20039;-73
2022/05/26 09:42:05;;;;;;;20.35;15.27;;;;;;;19.57;58.32;102100.75;5096598;28;20405;-73
2022/05/26 09:44:49;;;;;;;18.85;13.38;;;;;;;19.93;58.37;102112.53;5091014;28;20024;-73
2022/05/26 09:47:28;;;;;;;14.60;12.55;;;;;;;19.86;59.30;102120.75;5101319;28;20030;-72
2022/05/26 09:49:57;;;;;;;17.75;13.35;;;;;;;19.55;60.66;102109.66;5114229;28;20110;-73
2022/05/26 09:52:28;;;;;;;16.38;13.32;;;;;;;19.09;60.99;102114.16;5114787;28;20030;-73
2022/05/26 09:55:15;;;;;;;21.63;14.57;;;;;;;18.77;61.20;102121.56;5107132;28;20126;-73
2022/05/26 09:57:41;;;;;;;17.27;14.98;;;;;;;18.63;60.21;102127.28;5108600;28;20047;-73
2022/05/26 10:00:32;;;;;;;17.45;14.02;;;;;;;18.80;62.01;102115.25;5114067;28;20024;-73
2022/05/26 10:03:00;;;;;;;15.02;13.43;;;;;;;19.31;60.53;102104.47;5113186;28;20032;-72
2022/05/26 10:05:45;;;;;;;13.73;11.90;;;;;;;19.39;60.01;102109.44;5106932;28;20024;-73
2022/05/26 10:08:28;;;;;;;16.35;12.43;;;;;;;19.37;59.96;102128.00;5094036;28;20028;-73
2022/05/26 10:11:03;;;;;;;15.20;11.90;;;;;;;19.39;57.73;102114.72;5097421;28;20062;-72
2022/05/26 10:13:46;;;;;;;13.52;11.43;;;;;;;19.85;59.02;102112.88;5105964;28;20052;-73
2022/05/26 10:16:41;;;;;;;9.47;8.10;;;;;;;20.00;57.11;102116.66;5103191;28;20031;-73
2022/05/26 10:19:35;;;;;;;10.20;7.88;;;;;;;19.98;57.21;102118.47;5104550;28;20323;-73
2022/05/26 10:22:38;;;;;;;15.43;11.13;;;;;;;20.00;56.87;102127.22;5105929;28;20042;-73
2022/05/26 10:25:17;;;;;;;16.33;11.30;;;;;;;19.95;58.69;102137.19;5108893;28;20357;-74
2022/05/26 10:27:50;;;;;;;16.50;11.68;;;;;;;20.33;55.61;102124.91;5109624;28;20023;-72
2022/05/26 10:30:45;;;;;;;18.23;10.98;;;;;;;20.59;56.71;102113.19;5111962;28;20040;-76
2022/05/26 10:33:21;;;;;;;16.13;10.05;;;;;;;20.58;53.75;102112.31;5100933;28;20040;-75
2022/05/26 10:36:04;;;;;;;11.55;10.30;;;;;;;20.57;53.62;102128.31;5105283;28;20031;-77
2022/05/26 10:38:59;;;;;;;11.65;9.25;;;;;;;20.40;55.19;102123.69;5103305;28;20032;-76
2022/05/26 10:41:42;;;;;;;14.32;9.73;;;;;;;20.24;57.40;102128.84;5092975;28;20016;-76
2022/05/26 10:44:26;;;;;;;13.68;10.00;;;;;;;20.52;61.17;102119.69;5104277;28;20032;-76
2022/05/26 10:47:07;;;;;;;13.20;9.70;;;;;;;20.94;58.14;102106.25;5101235;28;20487;-77
2022/05/26 10:50:10;;;;;;;13.52;8.93;;;;;;;21.12;55.28;102115.13;5092880;28;20043;-76
2022/05/26 10:52:43;;;;;;;9.07;8.13;;;;;;;21.04;54.41;102110.19;5094622;28;20028;-75
2022/05/26 10:55:14;;;;;;;9.27;8.13;;;;;;;21.08;55.06;102113.56;5100735;28;20383;-75
2022/05/26 10:57:43;;;;;;;14.02;8.63;;;;;;;21.44;54.46;102108.28;5097833;28;20410;-75
2022/05/26 11:00:15;;;;;;;11.40;8.10;;;;;;;21.37;55.26;102114.00;5095978;28;20032;-75
2022/05/26 11:02:59;;;;;;;12.18;7.60;;;;;;;20.94;55.07;102116.00;5097976;28;20031;-75
2022/05/26 11:05:41;;;;;;;10.68;7.38;;;;;;;20.94;53.91;102122.16;5101498;28;20031;-75
2022/05/26 11:08:20;;;;;;;11.27;8.13;;;;;;;21.30;53.77;102124.00;5101026;28;20053;-75
2022/05/26 11:10:50;;;;;;;8.13;7.32;;;;;;;22.00;54.44;102117.00;5108859;28;20475;-75
2022/05/26 11:13:37;;;;;;;10.13;7.75;;;;;;;22.50;52.31;102118.84;5113093;27;20031;-74
2022/05/26 11:19:03;;;;;;;10.60;7.50;;;;;;;21.79;52.75;102115.44;5113061;28;20035;-75
2022/05/26 11:21:30;;;;;;;11.57;9.18;;;;;;;21.85;49.39;102115.16;5111210;28;20031;-75
2022/05/26 11:23:56;;;;;;;13.98;8.20;;;;;;;22.27;50.75;102121.84;5099633;28;20028;-75
2022/05/26 11:26:47;;;;;;;12.80;7.85;;;;;;;22.32;50.49;102119.81;5109548;28;20390;-75
2022/05/26 11:29:20;;;;;;;10.68;7.70;;;;;;;22.14;48.99;102116.31;5103702;28;20467;-75
2022/05/26 11:37:39;;;;;;;14.23;8.55;;;;;;;21.01;52.16;102117.44;5107172;28;20399;-75
2022/05/26 11:40:09;;;;;;;9.35;8.43;;;;;;;20.43;52.45;102112.13;5094868;28;20028;-75
2022/05/26 11:42:49;;;;;;;9.93;8.43;;;;;;;19.96;54.86;102110.63;5090727;28;20118;-75
2022/05/26 11:45:25;;;;;;;10.65;8.00;;;;;;;19.62;56.68;102111.16;5094993;28;20495;-75
2022/05/26 11:47:57;;;;;;;11.43;8.82;;;;;;;19.63;57.19;102112.88;5111075;28;20398;-76
2022/05/26 11:50:28;;;;;;;16.98;8.15;;;;;;;19.85;56.92;102112.88;5104925;28;20020;-75
2022/05/26 11:52:54;;;;;;;12.07;8.15;;;;;;;20.51;54.29;102099.44;5092078;28;20428;-76
2022/05/26 11:55:29;;;;;;;12.33;9.07;;;;;;;21.46;50.35;102095.81;5101032;28;20134;-76
2022/05/26 11:57:54;;;;;;;11.82;8.07;;;;;;;21.61;51.61;102091.53;5095654;28;20043;-76
2022/05/26 12:00:35;;;;;;;10.38;8.07;;;;;;;21.41;50.38;102089.88;5111370;28;20049;-76
2022/05/26 12:03:22;;;;;;;11.55;9.18;;;;;;;21.28;53.47;102089.59;5110021;28;20465;-76
2022/05/26 12:05:56;;;;;;;12.23;7.45;;;;;;;21.91;51.05;102090.94;5110920;28;20120;-76
2022/05/26 12:08:28;;;;;;;13.25;6.88;;;;;;;23.56;48.42;102087.22;5107940;28;20035;-75
2022/05/26 12:10:58;;;;;;;12.82;6.53;;;;;;;25.03;45.92;102081.81;5102029;28;20024;-76